Patna Airport
VEPT : now visible

Airfield :











YOU CAN JOIN US ON...

 
LOGIN :

Register | Disclaimer

   EN    FR    IT 

 









Legend :    VFR   Marginal VFR   IFR   Intensive IFR   Very Intensive IFR
Visi :
Ceiling :
>= 8 km
>= 3000ft
5 to 8 km
1000 to 3000 ft
1500m to 5 km
500 to 1000 ft
800 to 1500m
200 to 500 ft
< 800m
< 200 ft
Symbols :   Thunderstorms  Fog  Heavy snow  Heavy precipitations  Wind > 20 kt






- Airport Elevation : 170 ft
- IATA code : PAT


VEPT - Patna

CURRENT METAR :
  • 171230Z 25003KT 3500 HZ NSC 23/16 Q1014 NOSIG

EXPIRED METARs :
  • 171200Z 29003KT 3500 HZ NSC 24/14 Q1014 NOSIG
  • 171130Z 26004KT 4000 HZ NSC 24/14 Q1013 NOSIG
  • 171100Z 26007KT 4500 HZ NSC 25/14 Q1014 NOSIG
  • 171030Z 26006KT 5000 HZ NSC 26/14 Q1013 NOSIG
  • 171000Z 29005KT 5000 HZ NSC 26/15 Q1014 NOSIG

TAF TAF VEPT
Valid from the 17 at 12:00 until the 18 at 18:00 UTC


171100Z 1712/1818 27005KT 3000 BR HZ FEW100
BECMG 1713/1715 00000KT
BECMG 1722/1724 1500 BR
BECMG 1804/1806 27005KT 3000 BR HZ
BECMG 1807/1809 4500 HZ
BECMG 1813/1815 00000KT 3000 BR HZ



MET'MAP, your aeronautical weather chart ! - Copyright ORBIFLY December 2007 - Disclaimer

ORBIFLY MET'MAP TEAM :

Programming & Development : Alexandra Zaïnal
Concept & original design : Baudouin d'Aumeries
Assistance for programming : Marc-Olivier Méhu
Technical & hardware support : Manuel Goepfert

Contact : metmap@orbifly.com




SOURCES & CREDITS :

   NOAA       Earth
Advisory